Tiempo atmosférico en la estación meteorológica de Autilla del Pino, Palencia (874 m.)



Fecha
DESCASC
Temp. máxima en grados centígrados (hora)
DESCASC
Temp. mínima en grados centígrados (hora)
DESCASC
Temp. media en grados centígrados
DESCASC
Racha de viento máxima en m/sg (hora)
DESCASC
Velocidad máxima media en intervalos de 10 minutos(hora)
DESCASC
Precipitaciones diarias en mm
DESCASC
Precipitaciones de 00:00 a 06:00 en mm
DESCASC
Precipitaciones de 06:00 a 12:00 en mm
DESCASC
Precipitaciones de 12:00 a 18:00 en mm
DESCASC
Precipitaciones de 18:00 a 24:00 en mm
DESCASC
19-04-2018 22.3 (16:00) 8.2 (08:00) 15.2 10.28 (17:10) 6.67 (17:10) -- -- -- -- --
18-04-2018 22.6 (16:30) 6.1 (07:20) 14.4 8.33 (16:30) 5.28 (17:00) -- -- -- -- --
17-04-2018 18.9 (17:20) 2.8 (07:20) 10.8 5.83 (05:20) 4.44 (05:10) -- -- -- -- --
16-04-2018 13.1 (17:10) 2.9 (07:50) 8 8.61 (00:10) 6.39 (00:10) -- -- -- -- --
15-04-2018 13.4 (16:40) 3.9 (00:00) 8.6 10.83 (15:30) 7.78 (15:00) -- -- -- -- --
14-04-2018 13.8 (16:30) 2.9 (00:00) 8.4 7.22 (16:20) 4.17 (23:50) -- -- -- -- --
13-04-2018 9.1 (17:30) 3.3 (00:00) 6.2 7.22 (02:30) 5 (02:30) -- -- -- -- --
12-04-2018 10.8 (17:10) -0.7 (-00:0) 5.1 7.78 (04:10) 6.11 (04:20) -- -- -- -- --
11-04-2018 11.3 (18:10) -1.1 (-00:0) 5.1 13.61 (15:00) 10 (14:40) -- -- -- -- --
10-04-2018 7.3 (15:00) 1.1 (00:00) 4.2 13.89 (16:10) 10 (05:30) -- -- -- -- --
09-04-2018 6.2 (00:10) 0.2 (00:00) 3.2 11.67 (23:10) 8.89 (23:10) -- -- -- -- --
08-04-2018 12.2 (17:10) 2 (00:00) 7.1 10.83 (18:20) 8.33 (18:20) -- -- -- -- --
07-04-2018 9.1 (18:50) 4 (00:00) 6.6 8.33 (00:10) 5 (00:10) -- -- -- -- --
06-04-2018 20.2 (17:00) 4 (00:00) 12.1 14.17 (22:20) 9.72 (22:20) -- -- -- -- --
05-04-2018 15.5 (18:10) 0 (00:00) 7.8 10.83 (00:10) 7.22 (00:40) -- -- -- -- --
04-04-2018 12.3 (17:20) 4.1 (00:00) 8.2 16.67 (15:50) 12.78 (13:50) -- -- -- -- --
03-04-2018 13.4 (16:30) 4.6 (00:00) 9 20 (16:10) 15 (16:10) -- -- -- -- --
02-04-2018 15.3 (16:10) 6.5 (00:00) 10.9 15.28 (15:40) 11.39 (18:40) -- -- -- -- --
01-04-2018 17 (17:40) 0.7 (00:00) 8.8 8.33 (22:30) 6.39 (22:40) -- -- -- -- --
31-03-2018 10.9 (16:40) -0.6 (-00:0) 5.1 19.17 (02:00) 14.44 (03:00) -- -- -- -- --
30-03-2018 7.9 (15:30) -1.1 (-00:0) 3.4 19.44 (17:50) 14.17 (17:50) -- -- -- -- --
29-03-2018 10.5 (18:10) 2.1 (00:00) 6.3 14.44 (23:40) 10 (18:10) -- -- -- -- --
28-03-2018 14.4 (16:40) 3.1 (00:00) 8.7 13.06 (12:50) 10 (12:10) -- -- -- -- --
27-03-2018 17 (18:20) 3.2 (00:00) 10.1 9.44 (16:40) 7.22 (03:30) -- -- -- -- --
26-03-2018 12.4 (17:50) -2 (-00:0) 5.2 9.72 (16:00) 6.39 (18:00) -- -- -- -- --
25-03-2018 7.3 (18:00) -0.2 (00:00) 3.6 11.39 (00:10) 8.89 (00:10) -- -- -- -- --
24-03-2018 8.2 (16:10) -1 (-00:0) 3.6 21.67 (13:10) 15.28 (13:10) -- -- -- -- --
23-03-2018 11.4 (13:00) -1.4 (-00:0) 5 21.11 (22:20) 13.61 (22:20) -- -- -- -- --

Gráficas

Temp. máximas Temp. mínimas Temp. medias Precipitaciones Rachas de viento máximas Velocidades máximas media en intervalos de 10 minutos

Datos horarios

Fecha y hora oficial Temperatura (ºC) Velocidad del viento (km/h) Dirección del viento Racha (km/h) Dirección de racha Precipitación (mm) Presión (hPa) Tendencia (hPa) Humedad (%)
2018-04-21 23:00:00 11.5 6 Norte 7 Norte 0 -- -- 97
2018-04-21 22:00:00 11.8 6 Noroeste 10 Norte 0 -- -- 96
2018-04-21 21:00:00 12.8 8 Noroeste 10 Norte 0 -- -- 99
2018-04-21 20:00:00 14.9 6 Noroeste 10 Oeste 0 -- -- 93
2018-04-21 19:00:00 15.9 8 Oeste 16 Sudoeste 0 -- -- 78
2018-04-21 18:00:00 16.5 13 Sur 23 Este 0 -- -- 74
2018-04-21 17:00:00 16.2 17 Este 25 Este 0 -- -- 78
2018-04-21 16:00:00 16 12 Este 17 Este 0 -- -- 73
2018-04-21 15:00:00 15.9 0 Calma 10 Este 0 -- -- 74
2018-04-21 14:00:00 15.3 4 Sudoeste 14 Sudoeste 0 -- -- 78
2018-04-21 13:00:00 14.5 8 Sudoeste 17 Sudoeste 0 -- -- 81
2018-04-21 12:00:00 13.9 7 Sudoeste 15 Sudoeste 0 -- -- 80
2018-04-21 11:00:00 13 5 Sudeste 13 Este 0 -- -- 88
2018-04-21 10:00:00 11.4 12 Sudeste 21 Este 0 -- -- 92
2018-04-21 09:00:00 9.8 14 Este 19 Este 0 -- -- 99
2018-04-21 08:00:00 7.7 14 Este 17 Este 0 -- -- 99
2018-04-21 07:00:00 7.3 14 Este 17 Este 0 -- -- 99
2018-04-21 06:00:00 7.7 10 Sudeste 15 Sudeste 0 -- -- 99
2018-04-21 05:00:00 7.6 9 Este 12 Este 0 -- -- 99
2018-04-21 04:00:00 10 6 Sudeste 16 Sur 0 -- -- 97
2018-04-21 03:00:00 10.7 13 Sur 17 Sur 0 -- -- 94
2018-04-21 02:00:00 11.1 13 Sur 17 Sur 0 -- -- 93
2018-04-21 01:00:00 11.8 6 Sur 21 Sur 0 -- -- 92
2018-04-21 00:00:00 12.2 14 Sudeste 19 Sudeste 0 -- -- 93
2018-04-20 23:00:00 13.7 15 Sudeste 28 Sudeste 0 -- -- 87
2018-04-20 22:00:00 13.9 14 Sudeste 23 Sudeste 0 -- -- 85
2018-04-20 21:00:00 15.2 16 Sudeste 52 Sudeste 1 -- -- 85
2018-04-20 20:00:00 18.4 13 Sudeste 34 Sudeste 0 -- -- 57
2018-04-20 19:00:00 20.3 18 Sudeste 38 Sudeste 0 -- -- 54
2018-04-20 18:00:00 20.4 19 Sudeste 40 Este 0 -- -- 52
2018-04-20 17:00:00 20.4 21 Sudeste 41 Este 0 -- -- 51
2018-04-20 16:00:00 20 25 Sudeste 44 Sudeste 0 -- -- 51
2018-04-20 15:00:00 19.4 27 Este 44 Sudeste 0 -- -- 55
2018-04-20 14:00:00 18.8 24 Sudeste 42 Sudeste 0 -- -- 58
2018-04-20 13:00:00 17.6 23 Sudeste 40 Este 0 -- -- 62
2018-04-20 12:00:00 16.6 21 Sudeste 36 Sudeste 0 -- -- 68
2018-04-20 11:00:00 14.8 21 Este 30 Sudeste 0 -- -- 82
2018-04-20 10:00:00 13.1 19 Sudeste 28 Sudeste 0 -- -- 88
2018-04-20 09:00:00 11.2 18 Este 24 Este 0 -- -- 95
2018-04-20 08:00:00 10 17 Este 23 Sudeste 0 -- -- 99
2018-04-20 07:00:00 10 17 Sudeste 22 Este 0 -- -- 98
2018-04-20 06:00:00 10 15 Este 21 Este 0 -- -- 98
2018-04-20 05:00:00 10.6 16 Sudeste 20 Sudeste 0 -- -- 94
2018-04-20 04:00:00 10.9 13 Sudeste 20 Sudeste 0 -- -- 95
2018-04-20 03:00:00 11.3 10 Sudeste 28 Sudeste 0 -- -- 93
2018-04-20 02:00:00 12.4 22 Sudeste 28 Sudeste 0 -- -- 88
2018-04-20 01:00:00 13.8 23 Sudeste 32 Sudeste 0 -- -- 82
2018-04-20 00:00:00 15 21 Sudeste 30 Sudeste 0 -- -- 77
2018-04-19 23:00:00 15.4 18 Sudeste 26 Sudeste 0 -- -- 75
2018-04-19 22:00:00 14.8 11 Este 21 Este 0 -- -- 75
2018-04-19 21:00:00 17 14 Este 24 Este 0 -- -- 65
2018-04-19 20:00:00 20 13 Sudeste 24 Sudeste 0 -- -- 48
2018-04-19 19:00:00 21.1 15 Este 30 Sudeste 0 -- -- 47
2018-04-19 18:00:00 21.2 19 Este 37 Este 0 -- -- 46
2018-04-19 17:00:00 21.6 18 Sudeste 34 Este 0 -- -- 46
2018-04-19 16:00:00 21.9 20 Este 35 Sudeste 0 -- -- 47
2018-04-19 15:00:00 21.4 18 Sudeste 31 Este 0 -- -- 49
2018-04-19 14:00:00 20.3 16 Sudeste 30 Sudeste 0 -- -- 49
2018-04-19 13:00:00 19 14 Este 22 Sudeste 0 -- -- 55
2018-04-19 12:00:00 17.6 13 Este 22 Este 0 -- -- 65
2018-04-19 11:00:00 15.2 16 Este 22 Este 0 -- -- 73
2018-04-19 10:00:00 12.7 13 Este 17 Este 0 -- -- 86
2018-04-19 09:00:00 11.1 8 Este 12 Este 0 -- -- 97
2018-04-19 08:00:00 8.2 8 Este 21 Sudeste 0 -- -- 99
2018-04-19 07:00:00 9.1 11 Sudeste 18 Sudeste 0 -- -- 99
2018-04-19 06:00:00 10.5 8 Sudeste 24 Sur 0 -- -- 91
2018-04-19 05:00:00 10.8 21 Sur 26 Sudoeste 0 -- -- 88
2018-04-19 04:00:00 12 18 Sur 23 Sur 0 -- -- 92
2018-04-19 03:00:00 12.4 12 Sudeste 15 Sudeste 0 -- -- 94
2018-04-19 02:00:00 11.7 12 Este 15 Este 0 -- -- 93
2018-04-19 01:00:00 13.3 10 Sudeste 19 Sur 0 -- -- 77
2018-04-19 00:00:00 14 8 Este 10 Este 0 -- -- 69
2018-04-18 23:00:00 15 3 Nordeste 10 Este 0 -- -- 66
2018-04-18 22:00:00 16.5 5 Norte 7 Norte 0 -- -- 58
2018-04-18 21:00:00 18.5 4 Norte 6 Noroeste 0 -- -- 63
2018-04-18 20:00:00 20.2 6 Noroeste 12 Noroeste 0 -- -- 59
2018-04-18 19:00:00 20.8 8 Noroeste 19 Noroeste 0 -- -- 54
2018-04-18 18:00:00 21 13 Noroeste 25 Oeste 0 -- -- 53
2018-04-18 17:00:00 21.2 19 Oeste 30 Oeste 0 -- -- 55
2018-04-18 16:00:00 22.1 12 Sudoeste 22 Oeste 0 -- -- 52
2018-04-18 15:00:00 21 13 Sudoeste 23 Sudoeste 0 -- -- 52
2018-04-18 14:00:00 20.8 11 Sudoeste 18 Sur 0 -- -- 56
2018-04-18 13:00:00 19.1 6 Sur 17 Sudoeste 0 -- -- 65
2018-04-18 12:00:00 17.5 5 Sudeste 19 Sur 0 -- -- 67
2018-04-18 11:00:00 15 12 Sudeste 21 Sudeste 0 -- -- 78
2018-04-18 10:00:00 12.2 17 Sudeste 23 Este 0 -- -- 85
2018-04-18 09:00:00 10.2 13 Este 17 Este 0 -- -- 98
2018-04-18 08:00:00 7.5 10 Este 14 Este 0 -- -- 99
2018-04-18 07:00:00 6.8 12 Este 15 Este 0 -- -- 99
2018-04-18 06:00:00 7.6 12 Este 14 Este 0 -- -- 99
2018-04-18 05:00:00 7.4 11 Este 13 Este 0 -- -- 99
2018-04-18 04:00:00 10.4 7 Este 8 Este 0 -- -- 87
2018-04-18 03:00:00 10.3 8 Este 9 Este 0 -- -- 87
2018-04-18 02:00:00 11.3 7 Este 8 Este 0 -- -- 84
2018-04-18 01:00:00 10.8 8 Este 9 Nordeste 0 -- -- 84
2018-04-18 00:00:00 13.1 4 Nordeste 7 Este 0 -- -- 75
2018-04-17 23:00:00 14 3 Norte 4 Norte 0 -- -- 72
2018-04-17 22:00:00 14.7 3 Nordeste 5 Este 0 -- -- 70
2018-04-17 21:00:00 16.3 2 Noroeste 5 Noroeste 0 -- -- 71
2018-04-17 20:00:00 17.9 3 Noroeste 9 Noroeste 0 -- -- 65
2018-04-17 19:00:00 17.9 6 Noroeste 14 Oeste 0 -- -- 61
2018-04-17 18:00:00 18.3 10 Noroeste 17 Oeste 0 -- -- 64
2018-04-17 17:00:00 18.4 3 Nordeste 12 Oeste 0 -- -- 65
2018-04-17 16:00:00 18.1 0 Calma 13 Oeste 0 -- -- 68
2018-04-17 15:00:00 16.4 3 Este 12 Sur 0 -- -- 71
2018-04-17 14:00:00 15.3 6 Oeste 14 Sudoeste 0 -- -- 72
2018-04-17 13:00:00 14.3 3 Sudoeste 12 Oeste 0 -- -- 77
2018-04-17 12:00:00 12.5 6 Oeste 14 Oeste 0 -- -- 82
2018-04-17 11:00:00 11.4 6 Oeste 10 Oeste 0 -- -- 87
2018-04-17 10:00:00 9.3 6 Sudoeste 13 Sudoeste 0 -- -- 99
2018-04-17 09:00:00 6.1 11 Sudoeste 14 Sudoeste 0 -- -- 99
2018-04-17 08:00:00 3.5 11 Sur 16 Sur 0 -- -- 99
2018-04-17 07:00:00 3.3 9 Sudoeste 15 Sudoeste 0 -- -- 99
2018-04-17 06:00:00 3.4 13 Sudoeste 21 Sudoeste 0 -- -- 99
2018-04-17 05:00:00 3.9 15 Sudoeste 18 Sur 0 -- -- 99
2018-04-17 04:00:00 4.3 14 Sudoeste 16 Sudoeste 0 -- -- 99
2018-04-17 03:00:00 4.9 13 Sudoeste 17 Sur 0 -- -- 99
2018-04-17 02:00:00 5.3 14 Sur 16 Sudoeste 0 -- -- 99
2018-04-17 01:00:00 5.5 14 Sudoeste 16 Sudoeste 0 -- -- 97
2018-04-17 00:00:00 5.7 13 Sudoeste 14 Sudoeste 0 -- -- 99
2018-04-16 23:00:00 5.9 12 Sudoeste 15 Sudoeste 0 -- -- 99
2018-04-16 22:00:00 6.6 11 Sudoeste 12 Sudoeste 0 -- -- 98
2018-04-16 21:00:00 9.2 9 Oeste 17 Oeste 0 -- -- 85
2018-04-16 20:00:00 11.7 13 Oeste 19 Oeste 0 -- -- 72
2018-04-16 19:00:00 12.5 10 Oeste 21 Oeste 0 -- -- 70
2018-04-16 18:00:00 12.6 10 Oeste 24 Oeste 0 -- -- 68
2018-04-16 17:00:00 12 5 Oeste 19 Oeste 0 -- -- 70
2018-04-16 16:00:00 11.7 9 Oeste 15 Oeste 0 -- -- 77
2018-04-16 15:00:00 11.2 2 Sudoeste 12 Sudoeste 0 -- -- 76
2018-04-16 14:00:00 9.9 5 Sur 12 Sudoeste 0 -- -- 79
2018-04-16 13:00:00 9 4 Este 14 Este 0 -- -- 85
2018-04-16 12:00:00 8.2 8 Este 21 Este 0 -- -- 89
2018-04-16 11:00:00 7.1 5 Este 9 Sudeste 0 -- -- 96
2018-04-16 10:00:00 5.9 3 Este 8 Este 0 -- -- 99
2018-04-16 09:00:00 4.5 5 Este 12 Oeste 0 -- -- 99
2018-04-16 08:00:00 3.3 9 Oeste 12 Oeste 0.1 -- -- 99
2018-04-16 07:00:00 3.6 7 Oeste 21 Oeste 0 -- -- 99
2018-04-16 06:00:00 3.7 15 Oeste 21 Oeste 0 -- -- 99
2018-04-16 05:00:00 4.3 17 Oeste 28 Oeste 0 -- -- 99
2018-04-16 04:00:00 5 22 Oeste 31 Oeste 0 -- -- 99
2018-04-16 03:00:00 5.4 22 Oeste 27 Oeste 0 -- -- 99
2018-04-16 02:00:00 5.6 16 Sudoeste 21 Sudoeste 0 -- -- 99
2018-04-16 01:00:00 5.8 15 Oeste 31 Oeste 0.2 -- -- 99
2018-04-16 00:00:00 6.6 22 Oeste 32 Oeste 1.3 -- -- 99
2018-04-15 23:00:00 7.3 21 Oeste 28 Oeste 0.3 -- -- 99
2018-04-15 22:00:00 7.6 10 Oeste 23 Oeste 0.7 -- -- 99
2018-04-15 21:00:00 7.9 21 Oeste 37 Oeste 1.3 -- -- 99
2018-04-15 20:00:00 9.9 17 Oeste 24 Oeste 0 -- -- 96
2018-04-15 19:00:00 10.5 21 Oeste 32 Oeste 0 -- -- 97
2018-04-15 18:00:00 11.6 22 Oeste 31 Oeste 0 -- -- 87
2018-04-15 17:00:00 12.6 23 Oeste 33 Oeste 0 -- -- 82
2018-04-15 16:00:00 12.2 25 Oeste 39 Oeste 0 -- -- 81
2018-04-15 15:00:00 12.3 28 Oeste 37 Sudoeste 0 -- -- 88
2018-04-15 14:00:00 10.8 23 Oeste 33 Oeste 0 -- -- 99
2018-04-15 13:00:00 9.5 17 Sudoeste 26 Sudoeste 0 -- -- 99
2018-04-15 12:00:00 9.5 19 Sudoeste 28 Sudoeste 0 -- -- 99
2018-04-15 11:00:00 9.1 17 Sudoeste 30 Sudoeste 0 -- -- 99
2018-04-15 10:00:00 8.2 23 Sudoeste 35 Sudoeste 0 -- -- 99
2018-04-15 09:00:00 7.2 21 Sudoeste 29 Sudoeste 0 -- -- 99
2018-04-15 08:00:00 6.7 21 Sudoeste 30 Oeste 0 -- -- 99
2018-04-15 07:00:00 7.3 21 Sudoeste 29 Sudoeste 0 -- -- 99
2018-04-15 06:00:00 6.8 16 Sudoeste 22 Sudoeste 0 -- -- 99
2018-04-15 05:00:00 6.8 12 Sudoeste 22 Oeste 0.2 -- -- 99
2018-04-15 04:00:00 6.9 16 Sudoeste 20 Sudoeste 0 -- -- 99
2018-04-15 03:00:00 6.8 17 Sudoeste 21 Sudoeste 0 -- -- 99
2018-04-15 02:00:00 5.4 14 Sudoeste 17 Sudoeste 0 -- -- 99
2018-04-15 01:00:00 4.5 14 Sudoeste 19 Oeste 0 -- -- 99
2018-04-15 00:00:00 4.5 15 Sudoeste 17 Sudoeste 0 -- -- 99
2018-04-14 23:00:00 5.5 13 Sudoeste 15 Sudoeste 0 -- -- 99
2018-04-14 22:00:00 6.5 12 Sudoeste 17 Sudoeste 0 -- -- 99
2018-04-14 21:00:00 8.7 11 Sudoeste 19 Oeste 0 -- -- 91
2018-04-14 20:00:00 12.5 9 Sudoeste 18 Oeste 0 -- -- 72
2018-04-14 19:00:00 12.9 14 Oeste 20 Oeste 0 -- -- 67
2018-04-14 18:00:00 12.5 4 Oeste 21 Sudoeste 0 -- -- 66
2018-04-14 17:00:00 13.4 14 Sudoeste 26 Sudoeste 0 -- -- 67
2018-04-14 16:00:00 12.9 6 Sudoeste 18 Sur 0 -- -- 66
2018-04-14 15:00:00 11.2 5 Sur 15 Sudoeste 0 -- -- 71
2018-04-14 14:00:00 11.7 5 Sudoeste 15 Oeste 0 -- -- 74
2018-04-14 13:00:00 10.5 2 Sudeste 17 Sur 0 -- -- 78
2018-04-14 12:00:00 10.1 8 Sudeste 19 Este 0 -- -- 86
2018-04-14 11:00:00 8.3 9 Sudeste 15 Sudeste 0 -- -- 94
2018-04-14 10:00:00 7.4 6 Este 8 Sudeste 0 -- -- 99
2018-04-14 09:00:00 5.9 0 Calma 6 Sudoeste 0 -- -- 99
2018-04-14 08:00:00 3.3 0 Calma 2 Este 0 -- -- 99
2018-04-14 07:00:00 4 2 Sudeste 9 Sudeste 0 -- -- 99
2018-04-14 06:00:00 4.5 5 Sudeste 9 Sudeste 0 -- -- 99
2018-04-14 05:00:00 4.4 5 Sudeste 7 Sudeste 0 -- -- 99
2018-04-14 04:00:00 4.1 3 Sudeste 6 Sudeste 0.1 -- -- 99
2018-04-14 03:00:00 3.7 3 Sudeste 10 Este 0 -- -- 99
2018-04-14 02:00:00 3.2 11 Este 13 Este 0 -- -- 99
2018-04-14 01:00:00 4 7 Este 8 Este 0 -- -- 99
2018-04-14 00:00:00 4.5 7 Nordeste 11 Nordeste 0 -- -- 99
2018-04-13 23:00:00 5.6 5 Nordeste 6 Nordeste 0 -- -- 99
2018-04-13 22:00:00 6 4 Nordeste 8 Nordeste 0 -- -- 99
2018-04-13 21:00:00 6.4 5 Nordeste 10 Norte 0 -- -- 99
2018-04-13 20:00:00 7 6 Norte 13 Norte 0.1 -- -- 99
2018-04-13 19:00:00 6.9 10 Nordeste 21 Nordeste 0.1 -- -- 99
2018-04-13 18:00:00 7.6 16 Norte 24 Norte 0 -- -- 99
2018-04-13 17:00:00 8.6 2 Sur 8 Sur 0.1 -- -- 89
2018-04-13 16:00:00 8.3 6 Sudoeste 12 Sudoeste 0 -- -- 90
2018-04-13 15:00:00 8.5 4 Sur 8 Sudoeste 0 -- -- 90
2018-04-13 14:00:00 7.6 2 Sudoeste 8 Sur 0 -- -- 96
2018-04-13 13:00:00 6.1 3 Sur 8 Oeste 0.1 -- -- 99
2018-04-13 12:00:00 5.5 8 Oeste 10 Oeste 0.3 -- -- 99
2018-04-13 11:00:00 5.1 7 Oeste 12 Oeste 0 -- -- 99
2018-04-13 10:00:00 4.5 10 Oeste 12 Oeste 0.1 -- -- 99
2018-04-13 09:00:00 4 4 Oeste 6 Sur 0.2 -- -- 99
2018-04-13 08:00:00 3.4 4 Sur 9 Sur 0.1 -- -- 99
2018-04-13 07:00:00 3.3 5 Sur 8 Sudoeste 0 -- -- 99
2018-04-13 06:00:00 3.4 6 Sur 11 Sur 0 -- -- 99
2018-04-13 05:00:00 3.6 8 Sur 11 Sur 0 -- -- 99
2018-04-13 04:00:00 3.7 9 Sur 17 Sur 0.4 -- -- 99
2018-04-13 03:00:00 3.9 15 Sudoeste 26 Sudoeste 0 -- -- 99
2018-04-13 02:00:00 4.4 15 Sudoeste 19 Sudoeste 0.2 -- -- 99
2018-04-13 01:00:00 4.7 6 Oeste 13 Sudoeste 0.8 -- -- 99
2018-04-13 00:00:00 4.6 9 Noroeste 13 Noroeste 0.5 -- -- 99
2018-04-12 23:00:00 4.9 11 Noroeste 22 Oeste 0.2 -- -- 99
2018-04-12 22:00:00 5.4 13 Noroeste 24 Oeste 0 -- -- 99
2018-04-12 21:00:00 6.9 14 Oeste 25 Oeste 0 -- -- 93
2018-04-12 20:00:00 9 4 Sudeste 19 Sur 0 -- -- 74
2018-04-12 19:00:00 9.3 7 Sudeste 20 Sudeste 0 -- -- 68
2018-04-12 18:00:00 9.6 9 Sudeste 22 Sur 0 -- -- 68
2018-04-12 17:00:00 9.6 15 Sur 21 Sudoeste 0 -- -- 73
2018-04-12 16:00:00 9 14 Sur 22 Sudoeste 0 -- -- 76
2018-04-12 15:00:00 8.5 12 Sudoeste 22 Sudeste 0 -- -- 80
2018-04-12 14:00:00 7.6 5 Sur 17 Sur 0 -- -- 88
2018-04-12 13:00:00 7.1 9 Sudoeste 18 Sudoeste 0 -- -- 92
2018-04-12 12:00:00 5.4 12 Sudoeste 27 Oeste 0 -- -- 99
2018-04-12 11:00:00 4.5 15 Oeste 23 Oeste 0 -- -- 99
2018-04-12 10:00:00 3.3 17 Sudoeste 26 Sudoeste 0 -- -- 99
2018-04-12 09:00:00 2.1 20 Sudoeste 26 Sudoeste 0 -- -- 99
2018-04-12 08:00:00 -0.6 13 Sudoeste 16 Sudoeste 0 -- -- 99
2018-04-12 07:00:00 -0.1 10 Sudoeste 19 Oeste 0 -- -- 99
2018-04-12 06:00:00 1.5 18 Oeste 28 Oeste 0 -- -- 99
2018-04-12 05:00:00 1.8 18 Oeste 28 Oeste 0 -- -- 99
2018-04-12 04:00:00 1.5 17 Oeste 22 Oeste 0 -- -- 99
2018-04-12 03:00:00 1.6 15 Oeste 22 Oeste 0 -- -- 99
2018-04-12 02:00:00 2.1 17 Oeste 20 Oeste 0 -- -- 99
2018-04-12 01:00:00 2.6 13 Noroeste 18 Noroeste 0 -- -- 99
2018-04-12 00:00:00 2.7 14 Noroeste 22 Noroeste 0 -- -- 99
2018-04-11 23:00:00 3.2 15 Noroeste 23 Noroeste 0 -- -- 99
2018-04-11 22:00:00 4.5 13 Noroeste 26 Noroeste 0 -- -- 93
2018-04-11 21:00:00 6.6 21 Noroeste 34 Noroeste 0 -- -- 83
2018-04-11 20:00:00 8.7 28 Noroeste 39 Noroeste 0 -- -- 71
2018-04-11 19:00:00 9.9 28 Noroeste 44 Norte 0 -- -- 66
2018-04-11 18:00:00 9.7 31 Noroeste 47 Noroeste 0 -- -- 70
2018-04-11 17:00:00 9.3 31 Noroeste 44 Noroeste 0 -- -- 71
2018-04-11 16:00:00 9.1 29 Noroeste 49 Noroeste 0 -- -- 72
2018-04-11 15:00:00 8.7 34 Noroeste 49 Noroeste 0 -- -- 73
2018-04-11 14:00:00 7.4 31 Noroeste 43 Noroeste 0 -- -- 77
2018-04-11 13:00:00 6.6 30 Noroeste 44 Noroeste 0 -- -- 79
2018-04-11 12:00:00 4.8 33 Noroeste 44 Noroeste 0 -- -- 88
2018-04-11 11:00:00 3 30 Noroeste 37 Noroeste 0 -- -- 98
2018-04-11 10:00:00 1 24 Noroeste 31 Noroeste 0 -- -- 99
2018-04-11 09:00:00 -0.5 21 Noroeste 26 Oeste 0 -- -- 99
2018-04-11 08:00:00 -0.9 19 Noroeste 24 Noroeste 0 -- -- 99
2018-04-11 07:00:00 -0.9 14 Noroeste 24 Noroeste 0 -- -- 99
2018-04-11 06:00:00 -0.3 18 Noroeste 22 Noroeste 0 -- -- 99
2018-04-11 05:00:00 0.2 18 Noroeste 21 Noroeste 0 -- -- 99
2018-04-11 04:00:00 -0.4 9 Noroeste 11 Noroeste 0 -- -- 99
2018-04-11 03:00:00 0.5 8 Noroeste 20 Norte 0 -- -- 99
2018-04-11 02:00:00 1.2 9 Norte 18 Nordeste 0 -- -- 99
2018-04-11 01:00:00 1.2 13 Nordeste 21 Nordeste 0 -- -- 99
2018-04-11 00:00:00 1.3 13 Nordeste 20 Nordeste 0 -- -- 99
2018-04-10 23:00:00 1.2 14 Nordeste 26 Nordeste 0 -- -- 99
2018-04-10 22:00:00 1.5 17 Nordeste 25 Nordeste 0.1 -- -- 99
2018-04-10 21:00:00 1.8 15 Nordeste 26 Nordeste 0 -- -- 99
2018-04-10 20:00:00 3.9 4 Nordeste 8 Nordeste 0 -- -- 98
2018-04-10 19:00:00 3.7 3 Sur 15 Noroeste 0 -- -- 99
2018-04-10 18:00:00 3.1 13 Noroeste 29 Noroeste 0 -- -- 99
2018-04-10 17:00:00 2.8 22 Norte 50 Oeste 0.6 -- -- 99
2018-04-10 16:00:00 6.3 17 Sudoeste 31 Oeste 0 -- -- 97
2018-04-10 15:00:00 6.7 18 Sudoeste 29 Sudoeste 0 -- -- 91
2018-04-10 14:00:00 5.1 22 Sudoeste 36 Sudoeste 0 -- -- 97
2018-04-10 13:00:00 5.5 20 Oeste 34 Oeste 0 -- -- 99
2018-04-10 12:00:00 4 17 Oeste 28 Oeste 0.1 -- -- 99
2018-04-10 11:00:00 2.8 12 Oeste 28 Sudoeste 1.8 -- -- 99
2018-04-10 10:00:00 1.9 23 Sudoeste 39 Sudoeste 2.6 -- -- 99
2018-04-10 09:00:00 2.3 25 Sudoeste 41 Sudoeste 2.3 -- -- 99
2018-04-10 08:00:00 2 29 Sudoeste 49 Oeste 2.8 -- -- 99
2018-04-10 07:00:00 3.2 27 Sudoeste 45 Sudoeste 1.9 -- -- 99
2018-04-10 06:00:00 3.4 30 Oeste 48 Sudoeste 0.2 -- -- 99
2018-04-10 05:00:00 4.4 31 Oeste 45 Oeste 0 -- -- 99
2018-04-10 04:00:00 4.4 31 Oeste 43 Oeste 0 -- -- 99
2018-04-10 03:00:00 4.1 25 Oeste 37 Oeste 0 -- -- 99
2018-04-10 02:00:00 4.6 26 Oeste 35 Sudoeste 0 -- -- 99
2018-04-10 01:00:00 4.6 22 Oeste 27 Oeste 0 -- -- 99
2018-04-10 00:00:00 3.8 15 Sudoeste 42 Oeste 1.3 -- -- 99
2018-04-09 23:00:00 4.7 22 Oeste 30 Oeste 0 -- -- 99
2018-04-09 22:00:00 4.9 18 Sudoeste 25 Sudoeste 0 -- -- 99
2018-04-09 21:00:00 4.5 15 Sudoeste 19 Oeste 0 -- -- 99
2018-04-09 20:00:00 5 15 Oeste 25 Oeste 0.1 -- -- 99
2018-04-09 19:00:00 4.7 17 Oeste 23 Oeste 0.1 -- -- 99
2018-04-09 18:00:00 4.3 14 Oeste 22 Oeste 0.3 -- -- 99
2018-04-09 17:00:00 3.6 11 Noroeste 19 Noroeste 0.5 -- -- 99
2018-04-09 16:00:00 3.7 11 Noroeste 17 Noroeste 0.2 -- -- 99
2018-04-09 15:00:00 3.8 10 Noroeste 16 Noroeste 0 -- -- 99
2018-04-09 14:00:00 3.3 8 Oeste 13 Noroeste 0.1 -- -- 99
2018-04-09 13:00:00 2 4 Noroeste 8 Noroeste 0.5 -- -- 99
2018-04-09 12:00:00 0.9 4 Norte 7 Norte 0.7 -- -- 99
2018-04-09 11:00:00 0.7 4 Noroeste 6 Norte 0.3 -- -- 99
2018-04-09 10:00:00 0.3 0 Calma 0 Calma 1.6 -- -- 99
2018-04-09 09:00:00 0.7 0 Calma 10 Oeste 1.3 -- -- 99
2018-04-09 08:00:00 1.2 6 Oeste 15 Oeste 1.3 -- -- 99
2018-04-09 07:00:00 2.1 9 Oeste 13 Oeste 1.1 -- -- 99
2018-04-09 06:00:00 2.2 0 Calma 20 Sudoeste 2.6 -- -- 99
2018-04-09 05:00:00 2.2 20 Sudoeste 36 Sudoeste 2.6 -- -- 99
2018-04-09 04:00:00 5 11 Sur 16 Sudoeste 1.1 -- -- 99
2018-04-09 03:00:00 5.4 6 Este 9 Este 0 -- -- 99
2018-04-09 02:00:00 5.3 5 Este 13 Sudoeste 0 -- -- 99
2018-04-09 01:00:00 5.5 12 Sudoeste 17 Sudoeste 0 -- -- 99
2018-04-09 00:00:00 6.1 3 Sudoeste 5 Sudoeste 0.1 -- -- 97
2018-04-08 23:00:00 5.5 2 Sur 37 Sudoeste 1.8 -- -- 99
2018-04-08 22:00:00 6 3 Sur 13 Noroeste 0 -- -- 99
2018-04-08 21:00:00 6.2 12 Oeste 27 Noroeste 0 -- -- 99
2018-04-08 20:00:00 9.1 16 Sudoeste 25 Oeste 0 -- -- 91
2018-04-08 19:00:00 9.2 11 Sudoeste 39 Oeste 1.3 -- -- 89
2018-04-08 18:00:00 9.5 23 Sudoeste 32 Oeste 0 -- -- 83
2018-04-08 17:00:00 11 21 Oeste 32 Oeste 0 -- -- 75
2018-04-08 16:00:00 10.2 23 Oeste 34 Oeste 0 -- -- 81
2018-04-08 15:00:00 8.6 25 Oeste 39 Oeste 0 -- -- 88
2018-04-08 14:00:00 8.5 25 Oeste 34 Oeste 0 -- -- 88
2018-04-08 13:00:00 8.5 21 Oeste 36 Oeste 0 -- -- 86
2018-04-08 12:00:00 7.3 22 Oeste 30 Oeste 0 -- -- 95
2018-04-08 11:00:00 6.5 21 Oeste 29 Oeste 0 -- -- 99
2018-04-08 10:00:00 5.3 14 Oeste 19 Oeste 0 -- -- 99
2018-04-08 09:00:00 3.6 15 Oeste 22 Oeste 0 -- -- 99
2018-04-08 08:00:00 2.1 15 Oeste 28 Oeste 0 -- -- 99
2018-04-08 07:00:00 2.2 22 Oeste 31 Oeste 0 -- -- 99
2018-04-08 06:00:00 2.6 27 Oeste 35 Oeste 0 -- -- 99
2018-04-08 05:00:00 2.3 16 Oeste 19 Oeste 0 -- -- 99
2018-04-08 04:00:00 2.1 15 Sudoeste 17 Sudoeste 0 -- -- 99
2018-04-08 03:00:00 2.5 13 Sudoeste 16 Sudoeste 0 -- -- 99
2018-04-08 02:00:00 3.8 15 Oeste 19 Oeste 0 -- -- 99
2018-04-08 01:00:00 4.1 13 Sudoeste 17 Sudoeste 0 -- -- 99
2018-04-08 00:00:00 4 7 Sudoeste 11 Sudoeste 0 -- -- 99
2018-04-07 23:00:00 5 10 Sudoeste 13 Sudoeste 0 -- -- 99
2018-04-07 22:00:00 5.1 10 Oeste 19 Noroeste 0 -- -- 99
2018-04-07 21:00:00 6.4 11 Sudoeste 16 Sur 0 -- -- 99
2018-04-07 20:00:00 8.4 10 Sur 18 Sur 0 -- -- 87
2018-04-07 19:00:00 8.4 10 Sur 19 Sur 0 -- -- 91
2018-04-07 18:00:00 8.1 8 Sudeste 16 Sudeste 0 -- -- 96
2018-04-07 17:00:00 6.9 6 Sudeste 14 Sudoeste 0.8 -- -- 95
2018-04-07 16:00:00 6.8 12 Sudoeste 27 Noroeste 0.2 -- -- 99
2018-04-07 15:00:00 7.4 15 Sudoeste 23 Sudoeste 0.2 -- -- 96
2018-04-07 14:00:00 6.6 4 Sudoeste 26 Oeste 0 -- -- 93
2018-04-07 13:00:00 5.7 5 Noroeste 14 Noroeste 0 -- -- 96
2018-04-07 12:00:00 5 9 Noroeste 13 Noroeste 0.2 -- -- 99
2018-04-07 11:00:00 4.5 9 Noroeste 17 Noroeste 0.7 -- -- 99
2018-04-07 10:00:00 4.6 10 Oeste 18 Oeste 1.2 -- -- 99
2018-04-07 09:00:00 4.9 3 Sudeste 7 Oeste 2.1 -- -- 99
2018-04-07 08:00:00 4.8 4 Sudoeste 16 Sudoeste 2 -- -- 99
2018-04-07 07:00:00 4.9 11 Sudoeste 19 Oeste 1.4 -- -- 99
2018-04-07 06:00:00 5.5 10 Oeste 16 Oeste 1 -- -- 99
2018-04-07 05:00:00 5.7 8 Sudoeste 20 Sudoeste 0.2 -- -- 99
2018-04-07 04:00:00 6.2 11 Sudoeste 28 Sudoeste 0.1 -- -- 99
2018-04-07 03:00:00 6.4 10 Sudoeste 24 Sudoeste 0 -- -- 99
2018-04-07 02:00:00 6.6 12 Sudoeste 23 Sudoeste 0 -- -- 99
2018-04-07 01:00:00 6.7 17 Sudoeste 30 Oeste 0 -- -- 99
2018-04-07 00:00:00 7 22 Oeste 31 Oeste 0 -- -- 99
2018-04-06 23:00:00 7.9 26 Oeste 51 Oeste 0.6 -- -- 99
2018-04-06 22:00:00 12.5 19 Sudoeste 30 Sudoeste 0 -- -- 82
2018-04-06 21:00:00 13.4 24 Sur 44 Sur 0 -- -- 78
2018-04-06 20:00:00 15.1 31 Sur 47 Sudoeste 0 -- -- 61
2018-04-06 19:00:00 16.8 31 Sur 48 Sur 0 -- -- 53
2018-04-06 18:00:00 18.4 31 Sudoeste 45 Sur 0 -- -- 50
2018-04-06 17:00:00 20.2 27 Sur 50 Sur 0 -- -- 47
2018-04-06 16:00:00 19.8 19 Sur 34 Sur 0 -- -- 48
2018-04-06 15:00:00 17.5 17 Sudoeste 34 Sudoeste 0 -- -- 51
2018-04-06 14:00:00 17 26 Sudoeste 40 Sudoeste 0 -- -- 52
2018-04-06 13:00:00 15.8 19 Sudoeste 30 Sudoeste 0 -- -- 58
2018-04-06 12:00:00 14.6 18 Sudoeste 25 Sudoeste 0 -- -- 65
2018-04-06 11:00:00 12.3 21 Sur 26 Sur 0 -- -- 70
2018-04-06 10:00:00 10.5 16 Sur 23 Sur 0 -- -- 78
2018-04-06 09:00:00 7.1 14 Sur 24 Sur 0 -- -- 89
2018-04-06 08:00:00 5.2 18 Sur 22 Sudeste 0 -- -- 92
2018-04-06 07:00:00 5.3 6 Sudeste 17 Sudeste 0 -- -- 94
2018-04-06 06:00:00 6.1 8 Sudeste 14 Sur 0 -- -- 94
2018-04-06 05:00:00 7.5 5 Sudeste 11 Oeste 0 -- -- 91
2018-04-06 04:00:00 5.8 10 Oeste 17 Oeste 0 -- -- 98
2018-04-06 03:00:00 4.4 16 Oeste 47 Oeste 0 -- -- 98
2018-04-06 02:00:00 5.1 14 Sudoeste 23 Sudoeste 0 -- -- 94
2018-04-06 01:00:00 7 17 Sudoeste 20 Sudoeste 0 -- -- 82
2018-04-06 00:00:00 7.9 12 Sudoeste 20 Sur 0 -- -- 77
2018-04-05 23:00:00 9.6 12 Sur 16 Sur 0 -- -- 58
2018-04-05 22:00:00 11.4 4 Sur 6 Sur 0 -- -- 50
2018-04-05 21:00:00 11.9 3 Sudoeste 11 Sur 0 -- -- 54
2018-04-05 20:00:00 13 10 Sur 18 Sur 0 -- -- 50
2018-04-05 19:00:00 14.7 12 Sur 22 Sur 0 -- -- 46
2018-04-05 18:00:00 15.3 14 Sudoeste 25 Sudoeste 0 -- -- 45
2018-04-05 17:00:00 14.7 10 Sudoeste 21 Sudoeste 0 -- -- 48
2018-04-05 16:00:00 13.5 10 Sur 24 Sudoeste 0 -- -- 53
2018-04-05 15:00:00 12.7 10 Sudoeste 24 Sur 0 -- -- 61
2018-04-05 14:00:00 11.4 14 Sudoeste 24 Oeste 0 -- -- 64
2018-04-05 13:00:00 10 7 Sur 18 Sur 0 -- -- 78
2018-04-05 12:00:00 8.9 9 Sur 17 Sur 0 -- -- 90
2018-04-05 11:00:00 6.5 6 Sur 12 Sur 0 -- -- 99
2018-04-05 10:00:00 3.9 7 Sur 12 Sur 0 -- -- 99
2018-04-05 09:00:00 1.2 9 Sur 17 Sudoeste 0 -- -- 99
2018-04-05 08:00:00 0.5 14 Sudoeste 16 Sudoeste 0 -- -- 99
2018-04-05 07:00:00 0.6 10 Sur 14 Sudoeste 0 -- -- 99
2018-04-05 06:00:00 0.5 9 Sudoeste 15 Sudoeste 0 -- -- 99
2018-04-05 05:00:00 0.7 8 Oeste 15 Sudoeste 0 -- -- 99
2018-04-05 04:00:00 2.1 10 Sudoeste 26 Oeste 0 -- -- 99
2018-04-05 03:00:00 3.9 16 Oeste 29 Oeste 0 -- -- 99
2018-04-05 02:00:00 4.6 23 Oeste 32 Oeste 0 -- -- 99
2018-04-05 01:00:00 4.9 22 Oeste 39 Oeste 0 -- -- 99
2018-04-05 00:00:00 5.5 23 Oeste 35 Oeste 0 -- -- 99
2018-04-04 23:00:00 6.3 21 Oeste 39 Oeste 0 -- -- 98
2018-04-04 22:00:00 6.5 24 Oeste 39 Oeste 0 -- -- 99
2018-04-04 21:00:00 7.8 30 Oeste 52 Oeste 0 -- -- 91
2018-04-04 20:00:00 9.4 35 Oeste 57 Oeste 0 -- -- 82
2018-04-04 19:00:00 10.4 43 Oeste 59 Oeste 0 -- -- 81
2018-04-04 18:00:00 11.2 41 Oeste 60 Oeste 0 -- -- 82
2018-04-04 17:00:00 11.1 45 Oeste 59 Oeste 0 -- -- 82
2018-04-04 16:00:00 10.5 46 Oeste 60 Oeste 0 -- -- 89
2018-04-04 15:00:00 9.8 40 Oeste 56 Oeste 0 -- -- 95
2018-04-04 14:00:00 9.2 44 Oeste 58 Oeste 0.1 -- -- 96
2018-04-04 13:00:00 8.6 41 Oeste 60 Oeste 0 -- -- 94
2018-04-04 12:00:00 7.7 37 Oeste 50 Oeste 0 -- -- 98
2018-04-04 11:00:00 6.2 37 Sudoeste 51 Sudoeste 0 -- -- 99
2018-04-04 10:00:00 5.2 35 Sudoeste 48 Sudoeste 0 -- -- 99
2018-04-04 09:00:00 4.9 31 Sudoeste 46 Sudoeste 0 -- -- 99
2018-04-04 08:00:00 4.7 29 Sudoeste 47 Sudoeste 0 -- -- 99
2018-04-04 07:00:00 4.7 31 Sudoeste 49 Sudoeste 0 -- -- 99
2018-04-04 06:00:00 4.7 27 Sudoeste 40 Sudoeste 0 -- -- 99
2018-04-04 05:00:00 4.3 30 Sudoeste 44 Sudoeste 0 -- -- 99
2018-04-04 04:00:00 4.5 31 Sudoeste 42 Sudoeste 0 -- -- 99
2018-04-04 03:00:00 4.6 28 Sudoeste 46 Sudoeste 0 -- -- 99
2018-04-04 02:00:00 4.8 31 Sudoeste 48 Sudoeste 0.2 -- -- 99
2018-04-04 01:00:00 4.9 33 Sudoeste 46 Sudoeste 0 -- -- 99
2018-04-04 00:00:00 5.1 32 Sudoeste 42 Sudoeste 0.1 -- -- 99
2018-04-03 23:00:00 5 31 Sudoeste 44 Sudoeste 0 -- -- 99
2018-04-03 22:00:00 4.9 23 Sudoeste 45 Sudoeste 0 -- -- 99
2018-04-03 21:00:00 5.6 32 Sudoeste 59 Oeste 0 -- -- 99
2018-04-03 20:00:00 6.5 37 Sudoeste 56 Oeste 0.2 -- -- 99
2018-04-03 19:00:00 6.3 49 Oeste 67 Oeste 0.4 -- -- 99
2018-04-03 18:00:00 8.4 32 Oeste 66 Sudoeste 0.4 -- -- 97
2018-04-03 17:00:00 10.5 38 Sudoeste 72 Sudoeste 0.1 -- -- 92
2018-04-03 16:00:00 12.2 50 Sudoeste 65 Sudoeste 0.1 -- -- 75
2018-04-03 15:00:00 11.1 46 Sudoeste 61 Sudoeste 0 -- -- 84
2018-04-03 14:00:00 9.4 38 Sudoeste 53 Sudoeste 0.3 -- -- 99
2018-04-03 13:00:00 9.3 33 Sudoeste 56 Oeste 0.2 -- -- 96
2018-04-03 12:00:00 9 36 Oeste 53 Oeste 0 -- -- 94
2018-04-03 11:00:00 6.1 31 Oeste 57 Oeste 1.2 -- -- 99
2018-04-03 10:00:00 7.3 26 Sudoeste 42 Sudoeste 0.3 -- -- 99
2018-04-03 09:00:00 6.9 30 Sudoeste 41 Sudoeste 0.1 -- -- 99
2018-04-03 08:00:00 6.6 26 Sudoeste 37 Sudoeste 0 -- -- 99
2018-04-03 07:00:00 6.1 22 Sudoeste 29 Sudoeste 0 -- -- 99
2018-04-03 06:00:00 5.9 19 Sudoeste 38 Sudoeste 0 -- -- 99
2018-04-03 05:00:00 6.1 26 Sudoeste 41 Sudoeste 0 -- -- 99
2018-04-03 04:00:00 7 24 Sudoeste 34 Oeste 0 -- -- 99
2018-04-03 03:00:00 7.4 24 Sudoeste 36 Sudoeste 0 -- -- 99
2018-04-03 02:00:00 7.7 24 Sudoeste 40 Sudoeste 0 -- -- 99
2018-04-03 01:00:00 7.5 18 Sudoeste 29 Sudoeste 0 -- -- 99
2018-04-03 00:00:00 7.9 21 Sudoeste 28 Sudoeste 0.1 -- -- 99
2018-04-02 23:00:00 8.3 20 Sudoeste 32 Sudoeste 0 -- -- 99
2018-04-02 22:00:00 8.2 23 Sudoeste 37 Sudoeste 0 -- -- 99
2018-04-02 21:00:00 8.7 23 Sudoeste 45 Sudoeste 0 -- -- 99
2018-04-02 20:00:00 9.3 32 Sudoeste 47 Oeste 0 -- -- 99
2018-04-02 19:00:00 9.7 32 Oeste 54 Oeste 1.2 -- -- 99
2018-04-02 18:00:00 11.6 31 Oeste 51 Oeste 0 -- -- 82
2018-04-02 17:00:00 13.6 32 Oeste 54 Sudoeste 0 -- -- 69
2018-04-02 16:00:00 14.1 37 Sudoeste 55 Sudoeste 0 -- -- 66
2018-04-02 15:00:00 12.7 31 Sudoeste 43 Sudoeste 0 -- -- 74
2018-04-02 14:00:00 12.3 25 Sudoeste 30 Sudoeste 0 -- -- 74
2018-04-02 13:00:00 11.8 21 Sudoeste 36 Sudoeste 0 -- -- 77
2018-04-02 12:00:00 12.1 23 Sudoeste 37 Sudoeste 0 -- -- 80
2018-04-02 11:00:00 10.6 21 Sudoeste 27 Sudoeste 0 -- -- 86
2018-04-02 10:00:00 9.2 21 Sudoeste 30 Sudoeste 0 -- -- 86
2018-04-02 09:00:00 7.8 13 Sudoeste 18 Sudoeste 0 -- -- 91
2018-04-02 08:00:00 6.5 16 Sudoeste 18 Sudoeste 0 -- -- 91
2018-04-02 07:00:00 7.3 14 Sur 18 Sur 0 -- -- 90
2018-04-02 06:00:00 6.8 15 Sur 18 Sur 0 -- -- 91
2018-04-02 05:00:00 7.2 13 Sur 15 Sur 0 -- -- 91
2018-04-02 04:00:00 6.9 13 Sudoeste 19 Sudoeste 0 -- -- 90
2018-04-02 03:00:00 7.4 15 Sudoeste 24 Sudoeste 0 -- -- 85
2018-04-02 02:00:00 8.6 19 Sudoeste 24 Sudoeste 0 -- -- 81
2018-04-02 01:00:00 9 16 Sudoeste 22 Sudoeste 0 -- -- 80
2018-04-02 00:00:00 9.5 19 Sudoeste 26 Sudoeste 0 -- -- 74
2018-04-01 23:00:00 10.3 19 Sudoeste 30 Sur 0 -- -- 70
2018-04-01 22:00:00 11.3 22 Sur 28 Sudoeste 0 -- -- 67
2018-04-01 21:00:00 12 17 Sur 23 Sur 0 -- -- 66
2018-04-01 20:00:00 14.5 4 Noroeste 20 Noroeste 0 -- -- 62
2018-04-01 19:00:00 15.7 4 Sudoeste 17 Sur 0 -- -- 59
2018-04-01 18:00:00 16.1 8 Sudeste 28 Sur 0 -- -- 56
2018-04-01 17:00:00 16.4 16 Sur 30 Sur 0 -- -- 58
2018-04-01 16:00:00 15.3 10 Sur 25 Sur 0 -- -- 59
2018-04-01 15:00:00 13.3 11 Sudoeste 18 Sudoeste 0 -- -- 64
2018-04-01 14:00:00 11.3 5 Sur 14 Sudoeste 0 -- -- 68
2018-04-01 13:00:00 9.8 7 Sudoeste 19 Sudoeste 0 -- -- 70
2018-04-01 12:00:00 8.7 12 Sudoeste 18 Sudoeste 0 -- -- 80
2018-04-01 11:00:00 7.5 13 Sur 17 Sur 0 -- -- 84
2018-04-01 10:00:00 6.2 8 Sur 15 Sudeste 0 -- -- 96
2018-04-01 09:00:00 3.3 10 Sur 18 Sur 0 -- -- 99
2018-04-01 08:00:00 0.9 12 Sur 14 Sur 0 -- -- 99
2018-04-01 07:00:00 1 13 Sur 14 Sudoeste 0 -- -- 99
2018-04-01 06:00:00 1.5 11 Sudoeste 16 Oeste 0 -- -- 99
2018-04-01 05:00:00 3.7 12 Sudoeste 15 Sudoeste 0 -- -- 98
2018-04-01 04:00:00 4.7 12 Oeste 22 Oeste 0 -- -- 89
2018-04-01 03:00:00 4.9 17 Oeste 23 Oeste 0 -- -- 84
2018-04-01 02:00:00 4.8 13 Oeste 26 Oeste 0 -- -- 81
2018-04-01 01:00:00 5.1 18 Oeste 25 Oeste 0 -- -- 78
2018-04-01 00:00:00 5.5 18 Oeste 24 Oeste 0 -- -- 77
2018-03-31 23:00:00 4.2 13 Oeste 19 Oeste 0 -- -- 73
2018-03-31 22:00:00 5.9 15 Oeste 25 Oeste 0 -- -- 62
2018-03-31 21:00:00 6.3 19 Oeste 33 Oeste 0 -- -- 59
2018-03-31 20:00:00 8 25 Oeste 32 Oeste 0 -- -- 56
2018-03-31 19:00:00 8.4 24 Oeste 36 Oeste 0 -- -- 54
2018-03-31 18:00:00 10 26 Noroeste 44 Noroeste 0 -- -- 52
2018-03-31 17:00:00 8.8 31 Noroeste 43 Noroeste 0 -- -- 52
2018-03-31 16:00:00 9.6 27 Noroeste 44 Noroeste 0 -- -- 56
2018-03-31 15:00:00 8.5 32 Noroeste 45 Noroeste 0 -- -- 60
2018-03-31 14:00:00 8 31 Noroeste 45 Oeste 0 -- -- 64
2018-03-31 13:00:00 7 29 Noroeste 42 Noroeste 0 -- -- 66
2018-03-31 12:00:00 5.3 27 Noroeste 41 Noroeste 0 -- -- 71
2018-03-31 11:00:00 3.5 30 Noroeste 46 Oeste 0 -- -- 94
2018-03-31 10:00:00 1.7 27 Oeste 38 Oeste 0 -- -- 99
2018-03-31 09:00:00 0.3 30 Oeste 37 Oeste 0 -- -- 99
2018-03-31 08:00:00 -0.4 31 Oeste 44 Oeste 0 -- -- 99
2018-03-31 07:00:00 -0.3 32 Oeste 49 Oeste 0 -- -- 99
2018-03-31 06:00:00 -0.4 40 Oeste 53 Oeste 0 -- -- 99
2018-03-31 05:00:00 -0.3 38 Oeste 58 Oeste 0 -- -- 99
2018-03-31 04:00:00 -0.1 44 Oeste 64 Oeste 0 -- -- 99
2018-03-31 03:00:00 0 52 Oeste 69 Oeste 0 -- -- 99
2018-03-31 02:00:00 0.2 49 Oeste 69 Oeste 0 -- -- 99
2018-03-31 01:00:00 0.7 42 Oeste 67 Oeste 0 -- -- 99
2018-03-31 00:00:00 0.2 38 Oeste 54 Oeste 0 -- -- 99
2018-03-30 23:00:00 0.4 38 Oeste 69 Oeste 0 -- -- 99
2018-03-30 22:00:00 1.4 49 Oeste 68 Oeste 0.2 -- -- 99
2018-03-30 21:00:00 1.5 38 Sudoeste 54 Sudoeste 0 -- -- 99
2018-03-30 20:00:00 1.6 37 Sudoeste 55 Sudoeste 0 -- -- 99
2018-03-30 19:00:00 3.4 36 Sudoeste 66 Oeste 0 -- -- 94
2018-03-30 18:00:00 3.9 45 Sudoeste 70 Sudoeste 0 -- -- 94
2018-03-30 17:00:00 6.2 35 Sudoeste 57 Oeste 0 -- -- 71
2018-03-30 16:00:00 7.3 33 Oeste 51 Oeste 0 -- -- 65
2018-03-30 15:00:00 5.5 31 Oeste 48 Oeste 0 -- -- 74
2018-03-30 14:00:00 4.7 32 Oeste 48 Oeste 0 -- -- 78
2018-03-30 13:00:00 3.9 35 Oeste 46 Oeste 0 -- -- 83
2018-03-30 12:00:00 3.3 31 Oeste 45 Oeste 0 -- -- 87
2018-03-30 11:00:00 2.6 31 Oeste 43 Sudoeste 0 -- -- 96
2018-03-30 10:00:00 0.9 31 Oeste 42 Oeste 0 -- -- 99
2018-03-30 09:00:00 -0.6 32 Oeste 45 Oeste 0 -- -- 99
2018-03-30 08:00:00 -0.9 30 Oeste 40 Oeste 0 -- -- 99
2018-03-30 07:00:00 -0.5 31 Oeste 50 Oeste 0 -- -- 99
2018-03-30 06:00:00 0 37 Oeste 53 Oeste 0 -- -- 99
2018-03-30 05:00:00 0.7 37 Oeste 62 Oeste 0 -- -- 99
2018-03-30 04:00:00 2 44 Oeste 61 Oeste 0 -- -- 99
2018-03-30 03:00:00 3.2 39 Oeste 61 Oeste 0 -- -- 99
2018-03-30 02:00:00 3.5 35 Oeste 69 Oeste 0.4 -- -- 99
2018-03-30 01:00:00 4.5 45 Sudoeste 63 Sudoeste 0.3 -- -- 99
2018-03-30 00:00:00 5.5 35 Sudoeste 52 Sudoeste 0 -- -- 90
2018-03-29 23:00:00 5.7 30 Oeste 46 Sudoeste 0 -- -- 87
2018-03-29 22:00:00 6.5 30 Oeste 42 Oeste 0 -- -- 79
2018-03-29 21:00:00 7.2 27 Sudoeste 41 Oeste 0 -- -- 64
2018-03-29 20:00:00 7.7 32 Sudoeste 46 Oeste 0 -- -- 64
2018-03-29 19:00:00 9.2 31 Sudoeste 48 Oeste 0 -- -- 61
2018-03-29 18:00:00 10.2 32 Sudoeste 47 Oeste 0 -- -- 58
2018-03-29 17:00:00 8.7 30 Oeste 46 Oeste 0 -- -- 60
2018-03-29 16:00:00 9.6 31 Oeste 46 Oeste 0 -- -- 59
2018-03-29 15:00:00 9 30 Oeste 41 Oeste 0 -- -- 61
2018-03-29 14:00:00 7.8 28 Oeste 43 Oeste 0 -- -- 66
2018-03-29 13:00:00 6.4 25 Oeste 38 Oeste 0 -- -- 74
2018-03-29 12:00:00 5.2 18 Oeste 27 Oeste 0 -- -- 88
2018-03-29 11:00:00 3.7 20 Oeste 31 Oeste 0 -- -- 98
2018-03-29 10:00:00 2.9 25 Oeste 33 Oeste 0 -- -- 99
2018-03-29 09:00:00 2.4 18 Oeste 29 Oeste 0 -- -- 99
2018-03-29 08:00:00 3 17 Oeste 24 Oeste 0 -- -- 99
2018-03-29 07:00:00 3.4 13 Oeste 24 Oeste 0 -- -- 99
2018-03-29 06:00:00 3.9 16 Oeste 24 Oeste 0 -- -- 99
2018-03-29 05:00:00 4.3 17 Oeste 24 Oeste 0 -- -- 99
2018-03-29 04:00:00 4.6 15 Oeste 22 Oeste 0 -- -- 99
2018-03-29 03:00:00 5.2 17 Oeste 25 Oeste 0 -- -- 99
2018-03-29 02:00:00 5.4 15 Oeste 24 Oeste 0 -- -- 99
2018-03-29 01:00:00 5.1 18 Oeste 29 Oeste 0 -- -- 99
2018-03-29 00:00:00 6.1 24 Oeste 33 Oeste 0 -- -- 99
2018-03-28 23:00:00 7.2 23 Oeste 31 Oeste 0 -- -- 99
2018-03-28 22:00:00 8.2 16 Oeste 25 Noroeste 0.1 -- -- 99
2018-03-28 21:00:00 8.3 14 Oeste 27 Noroeste 0.4 -- -- 99
2018-03-28 20:00:00 9.2 23 Noroeste 36 Noroeste 0 -- -- 90
2018-03-28 19:00:00 12.1 26 Oeste 39 Oeste 0 -- -- 73
2018-03-28 18:00:00 13.5 24 Oeste 39 Oeste 0 -- -- 70
2018-03-28 17:00:00 13.6 29 Oeste 41 Oeste 0 -- -- 70
2018-03-28 16:00:00 13.3 24 Oeste 38 Oeste 0 -- -- 68
2018-03-28 15:00:00 13.2 27 Oeste 41 Oeste 0 -- -- 68
2018-03-28 14:00:00 11.9 31 Oeste 44 Oeste 0 -- -- 71
2018-03-28 13:00:00 10.9 33 Oeste 47 Oeste 0 -- -- 68
2018-03-28 12:00:00 11.3 33 Oeste 45 Oeste 0 -- -- 60
2018-03-28 11:00:00 10.6 27 Oeste 36 Oeste 0 -- -- 62
2018-03-28 10:00:00 7.7 12 Sudoeste 21 Oeste 0 -- -- 84
2018-03-28 09:00:00 3.7 9 Sudoeste 21 Oeste 0 -- -- 88
2018-03-28 08:00:00 4.3 20 Oeste 24 Oeste 0 -- -- 81
2018-03-28 07:00:00 4.8 17 Oeste 31 Oeste 0 -- -- 78
2018-03-28 06:00:00 6.3 23 Oeste 36 Oeste 0 -- -- 72
2018-03-28 05:00:00 6.5 23 Oeste 29 Oeste 0 -- -- 76
2018-03-28 04:00:00 5.1 17 Oeste 21 Oeste 0 -- -- 77
2018-03-28 03:00:00 6.9 18 Oeste 26 Oeste 0 -- -- 71
2018-03-28 02:00:00 9 23 Oeste 28 Oeste 0 -- -- 68
2018-03-28 01:00:00 7.9 19 Oeste 24 Oeste 0 -- -- 67
2018-03-28 00:00:00 8.9 9 Oeste 19 Oeste 0 -- -- 66
2018-03-27 23:00:00 10 15 Oeste 22 Oeste 0 -- -- 64
2018-03-27 22:00:00 10.5 16 Oeste 26 Oeste 0 -- -- 67
2018-03-27 21:00:00 12.9 18 Oeste 24 Oeste 0 -- -- 66
2018-03-27 20:00:00 14.7 14 Oeste 22 Noroeste 0 -- -- 61
2018-03-27 19:00:00 16.3 18 Noroeste 30 Noroeste 0 -- -- 50
2018-03-27 18:00:00 16.7 17 Oeste 31 Oeste 0 -- -- 51
2018-03-27 17:00:00 16.2 19 Noroeste 34 Noroeste 0 -- -- 54
2018-03-27 16:00:00 15.8 16 Noroeste 29 Oeste 0 -- -- 58
2018-03-27 15:00:00 14.6 15 Noroeste 28 Oeste 0 -- -- 61
2018-03-27 14:00:00 12.5 18 Oeste 29 Oeste 0 -- -- 71
2018-03-27 13:00:00 10.5 18 Oeste 29 Oeste 0 -- -- 83
2018-03-27 12:00:00 8.5 19 Oeste 27 Oeste 0 -- -- 93
2018-03-27 11:00:00 6.6 18 Oeste 26 Oeste 0 -- -- 99
2018-03-27 10:00:00 5.6 19 Oeste 30 Oeste 0 -- -- 99
2018-03-27 09:00:00 4.5 22 Oeste 27 Oeste 0 -- -- 99
2018-03-27 08:00:00 3.4 17 Oeste 25 Oeste 0 -- -- 99
2018-03-27 07:00:00 3.8 19 Oeste 26 Oeste 0 -- -- 99
2018-03-27 06:00:00 4.2 22 Oeste 66 Oeste 0 -- -- 99
2018-03-27 05:00:00 4.1 15 Oeste 30 Oeste 0 -- -- 99
2018-03-27 04:00:00 4.6 23 Oeste 33 Oeste 0 -- -- 99
2018-03-27 03:00:00 5 23 Oeste 28 Oeste 0 -- -- 99
2018-03-27 02:00:00 4.7 19 Oeste 24 Oeste 0 -- -- 99
2018-03-27 01:00:00 4.8 19 Noroeste 24 Noroeste 0 -- -- 99
2018-03-27 00:00:00 5.7 13 Noroeste 18 Noroeste 0 -- -- 99
2018-03-26 23:00:00 6 13 Noroeste 18 Noroeste 0 -- -- 96
2018-03-26 22:00:00 7.3 12 Noroeste 26 Noroeste 0 -- -- 87
2018-03-26 21:00:00 9.1 19 Noroeste 27 Noroeste 0 -- -- 67
2018-03-26 20:00:00 10 18 Noroeste 24 Noroeste 0 -- -- 61
2018-03-26 19:00:00 10 14 Noroeste 31 Noroeste 0 -- -- 59
2018-03-26 18:00:00 11.5 23 Noroeste 31 Noroeste 0 -- -- 53
2018-03-26 17:00:00 11 20 Noroeste 31 Noroeste 0 -- -- 53
2018-03-26 16:00:00 10.4 21 Noroeste 35 Noroeste 0 -- -- 56
2018-03-26 15:00:00 8.9 13 Noroeste 24 Noroeste 0 -- -- 61
2018-03-26 14:00:00 8.3 12 Noroeste 23 Noroeste 0 -- -- 68
2018-03-26 13:00:00 6.9 5 Oeste 16 Norte 0 -- -- 71
2018-03-26 12:00:00 5.3 9 Noroeste 17 Noroeste 0 -- -- 79
2018-03-26 11:00:00 3.4 13 Noroeste 19 Noroeste 0 -- -- 95
2018-03-26 10:00:00 1.6 15 Noroeste 18 Noroeste 0 -- -- 99
2018-03-26 09:00:00 0 9 Noroeste 14 Noroeste 0 -- -- 99
2018-03-26 08:00:00 -1.6 8 Noroeste 14 Noroeste 0 -- -- 99
2018-03-26 07:00:00 -1.4 12 Noroeste 19 Noroeste 0 -- -- 99
2018-03-26 06:00:00 -0.9 14 Oeste 19 Oeste 0 -- -- 99
2018-03-26 05:00:00 -0.5 15 Oeste 21 Oeste 0 -- -- 99
2018-03-26 04:00:00 -0.1 17 Oeste 19 Oeste 0 -- -- 98
2018-03-26 03:00:00 0.9 17 Oeste 25 Noroeste 0 -- -- 94
2018-03-26 02:00:00 1.6 22 Noroeste 28 Noroeste 0 -- -- 92
2018-03-26 01:00:00 2.1 19 Oeste 24 Noroeste 0 -- -- 92
2018-03-26 00:00:00 1.6 18 Oeste 23 Noroeste 0 -- -- 94
2018-03-25 23:00:00 2.7 18 Noroeste 24 Noroeste 0 -- -- 89
2018-03-25 22:00:00 3.6 15 Noroeste 24 Noroeste 0 -- -- 86
2018-03-25 21:00:00 4.5 18 Noroeste 27 Noroeste 0 -- -- 83
2018-03-25 20:00:00 5.8 24 Noroeste 36 Noroeste 0 -- -- 78
2018-03-25 19:00:00 6.2 24 Noroeste 40 Noroeste 0 -- -- 78
2018-03-25 18:00:00 6.8 32 Noroeste 41 Norte 0 -- -- 75
2018-03-25 17:00:00 6.4 31 Noroeste 41 Norte 0 -- -- 80
2018-03-25 16:00:00 5.2 12 Nordeste 35 Noroeste 0.1 -- -- 93
2018-03-25 15:00:00 6.2 23 Norte 36 Norte 0 -- -- 74
2018-03-25 14:00:00 6.3 15 Noroeste 35 Noroeste 0 -- -- 72
2018-03-25 13:00:00 6 23 Noroeste 31 Noroeste 0 -- -- 71
2018-03-25 12:00:00 4.7 21 Noroeste 31 Noroeste 0 -- -- 86
2018-03-25 11:00:00 2.6 24 Noroeste 35 Noroeste 0 -- -- 99
2018-03-25 10:00:00 1.6 26 Oeste 39 Noroeste 0 -- -- 99
2018-03-25 09:00:00 0 26 Oeste 36 Oeste 0 -- -- 99
2018-03-25 08:00:00 0.1 28 Oeste 38 Oeste 0 -- -- 99
2018-03-25 07:00:00 -0.1 25 Oeste 34 Oeste 0 -- -- 99
2018-03-25 06:00:00 0 22 Oeste 28 Oeste 0 -- -- 99
2018-03-25 05:00:00 0.8 21 Oeste 31 Oeste 0 -- -- 99
2018-03-25 03:00:00 1.4 26 Noroeste 36 Noroeste 0 -- -- 94
2018-03-25 01:00:00 1.7 21 Oeste 41 Oeste 0 -- -- 94
2018-03-25 00:00:00 2.3 32 Oeste 42 Oeste 0 -- -- 91
2018-03-24 23:00:00 2.3 33 Oeste 51 Noroeste 0 -- -- 91
2018-03-24 22:00:00 2 39 Noroeste 53 Noroeste 0 -- -- 92
2018-03-24 21:00:00 2.5 36 Oeste 50 Oeste 0 -- -- 90
2018-03-24 20:00:00 3.4 36 Oeste 48 Oeste 0 -- -- 89
2018-03-24 19:00:00 5 38 Noroeste 54 Noroeste 0 -- -- 82
2018-03-24 18:00:00 7.4 38 Noroeste 60 Noroeste 0 -- -- 73
2018-03-24 17:00:00 7 44 Noroeste 61 Noroeste 0 -- -- 73
2018-03-24 16:00:00 7.8 50 Noroeste 68 Noroeste 0 -- -- 73
2018-03-24 15:00:00 7.6 49 Noroeste 67 Noroeste 0 -- -- 77
2018-03-24 14:00:00 7 53 Noroeste 78 Oeste 0 -- -- 78
2018-03-24 13:00:00 6.7 54 Noroeste 73 Oeste 0 -- -- 84
2018-03-24 12:00:00 5 48 Oeste 64 Oeste 0 -- -- 88
2018-03-24 11:00:00 4.4 44 Oeste 61 Oeste 0 -- -- 94
2018-03-24 10:00:00 2.2 44 Oeste 57 Oeste 0 -- -- 99
2018-03-24 09:00:00 0.8 37 Oeste 50 Oeste 0 -- -- 99
2018-03-24 08:00:00 -0.4 33 Oeste 51 Oeste 0 -- -- 99
2018-03-24 07:00:00 -0.8 35 Oeste 55 Oeste 0 -- -- 99
2018-03-24 06:00:00 -0.6 35 Oeste 51 Oeste 0 -- -- 99
2018-03-24 05:00:00 -0.6 32 Oeste 44 Oeste 0 -- -- 99
2018-03-24 04:00:00 -0.5 31 Oeste 46 Oeste 0 -- -- 99
2018-03-24 03:00:00 -0.3 30 Oeste 40 Noroeste 0 -- -- 99
2018-03-24 02:00:00 0.3 30 Oeste 45 Oeste 0 -- -- 99
2018-03-24 01:00:00 0.5 32 Oeste 47 Oeste 0 -- -- 99
2018-03-24 00:00:00 1 31 Oeste 46 Oeste 0.3 -- -- 99
2018-03-23 23:00:00 0.3 27 Oeste 76 Oeste 1.8 -- -- 99
2018-03-23 22:00:00 6.3 40 Oeste 55 Oeste 0.1 -- -- 99
2018-03-23 21:00:00 6.7 27 Oeste 48 Sudoeste 0 -- -- 99
2018-03-23 20:00:00 7 34 Oeste 52 Oeste 0.2 -- -- 99
2018-03-23 19:00:00 7.7 35 Oeste 54 Oeste 0.4 -- -- 99
2018-03-23 18:00:00 9.2 30 Oeste 54 Oeste 0 -- -- 92
2018-03-23 17:00:00 9.7 40 Oeste 55 Oeste 0 -- -- 92
2018-03-23 16:00:00 10.4 43 Oeste 59 Oeste 0 -- -- 88
2018-03-23 15:00:00 10.2 34 Oeste 49 Oeste 0 -- -- 95
2018-03-23 14:00:00 9.1 35 Oeste 48 Oeste 0 -- -- 96
2018-03-23 13:00:00 11.4 31 Oeste 43 Oeste 0 -- -- 89
2018-03-23 12:00:00 9.2 21 Oeste 31 Oeste 0 -- -- 93
2018-03-23 11:00:00 7.1 21 Oeste 26 Oeste 0 -- -- 95
2018-03-23 10:00:00 5.9 18 Sudoeste 27 Oeste 0 -- -- 98
2018-03-23 09:00:00 4.7 18 Oeste 27 Oeste 0 -- -- 97
2018-03-23 08:00:00 3 17 Oeste 23 Oeste 0 -- -- 99
2018-03-23 07:00:00 3.6 15 Oeste 26 Oeste 0 -- -- 98
2018-03-23 06:00:00 4 18 Oeste 25 Oeste 0 -- -- 94
2018-03-23 05:00:00 4.2 18 Oeste 23 Oeste 0 -- -- 88
2018-03-23 04:00:00 4.4 17 Oeste 23 Oeste 0 -- -- 84
2018-03-23 03:00:00 4.5 22 Oeste 30 Oeste 0 -- -- 78
2018-03-23 02:00:00 0.3 13 Oeste 19 Sudoeste 0 -- -- 99
2018-03-23 01:00:00 -0.7 13 Sudoeste 20 Sudoeste 0 -- -- 97
2018-03-23 00:00:00 -0.2 16 Sudoeste 19 Sudoeste 0 -- -- 92